Time;durP1;ratioP1;P1;durP2;ratioP2;P2;SDS_P1;SDS_P2;PMS_P1;PMS_P2;Temp;Humidity;BMP_temperature;BMP_pressure;BME280_temperature;BME280_humidity;BME280_pressure;Samples;Min_cycle;Max_cycle;Signal;HPM_P1;HPM_P2
2021/07/30 00:02:08;;;;;;;24.65;11.65;;;;;;;25.04;50.93;99645.19;5087155;28;20069;-23
2021/07/30 00:04:34;;;;;;;18.70;10.57;;;;;;;25.10;50.85;99634.91;5087226;28;20039;-23
2021/07/30 00:06:59;;;;;;;20.88;10.82;;;;;;;26.09;48.10;99644.69;5086795;28;20032;-23
2021/07/30 00:09:25;;;;;;;20.83;10.98;;;;;;;26.24;48.04;99652.28;5087091;28;20549;-23
2021/07/30 00:11:50;;;;;;;20.42;9.70;;;;;;;26.18;48.23;99648.16;5087215;28;20040;-23
2021/07/30 00:14:16;;;;;;;16.15;8.98;;;;;;;26.21;48.11;99647.47;5087128;28;20028;-23
2021/07/30 00:16:41;;;;;;;18.15;9.90;;;;;;;26.39;47.22;99635.25;5087229;28;20028;-23
2021/07/30 00:19:07;;;;;;;20.00;9.30;;;;;;;26.41;47.15;99643.13;5086840;28;20442;-23
2021/07/30 00:21:32;;;;;;;15.00;9.35;;;;;;;26.55;46.48;99651.06;5087055;28;20462;-23
2021/07/30 00:23:58;;;;;;;17.70;9.23;;;;;;;26.78;45.67;99649.56;5086957;28;20032;-23
2021/07/30 00:26:23;;;;;;;16.80;9.13;;;;;;;26.92;45.18;99643.78;5087163;28;20141;-23
2021/07/30 00:28:49;;;;;;;21.90;9.80;;;;;;;26.71;45.46;99638.38;5086942;28;20106;-23
2021/07/30 00:31:15;;;;;;;16.10;8.93;;;;;;;26.75;45.65;99627.56;5086903;28;20732;-23
2021/07/30 00:33:40;;;;;;;17.75;10.57;;;;;;;27.06;45.06;99641.53;5069028;28;20076;-23
2021/07/30 00:36:05;;;;;;;24.92;11.27;;;;;;;26.86;45.55;99640.47;5086960;28;20043;-23
2021/07/30 00:38:31;;;;;;;21.63;10.90;;;;;;;26.28;46.90;99625.91;5068947;28;20032;-23
2021/07/30 00:40:56;;;;;;;19.15;10.65;;;;;;;26.40;46.14;99639.63;5086958;28;20020;-23
2021/07/30 00:43:22;;;;;;;16.10;9.68;;;;;;;26.49;46.12;99647.72;5086446;28;20047;-23
2021/07/30 00:45:47;;;;;;;24.02;10.77;;;;;;;26.30;46.09;99618.16;5087427;28;20028;-23
2021/07/30 00:48:14;;;;;;;29.77;17.73;;;;;;;26.57;45.92;99643.31;5068682;28;20472;-23
2021/07/30 00:50:40;;;;;;;61.90;29.33;;;;;;;26.77;45.23;99641.72;5068686;28;20100;-23
2021/07/30 00:53:06;;;;;;;48.90;25.00;;;;;;;26.58;45.48;99642.19;5068511;28;20085;-23
2021/07/30 00:55:31;;;;;;;38.05;22.15;;;;;;;26.60;45.71;99637.19;5090094;28;20028;-23
2021/07/30 00:57:57;;;;;;;36.42;19.58;;;;;;;26.84;45.29;99636.47;5055568;28;20035;-23
2021/07/30 01:00:22;;;;;;;29.38;16.60;;;;;;;26.77;45.18;99642.50;5072471;28;20133;-23
2021/07/30 01:02:48;;;;;;;33.53;15.77;;;;;;;26.95;44.77;99636.81;5072691;28;20036;-23
2021/07/30 01:05:13;;;;;;;32.08;17.27;;;;;;;26.89;45.02;99632.72;5090358;28;20028;-23
2021/07/30 01:07:39;;;;;;;25.40;14.35;;;;;;;26.74;45.15;99612.28;5072364;28;20081;-23
2021/07/30 01:10:05;;;;;;;21.42;12.20;;;;;;;26.72;45.30;99631.75;5072456;28;20829;-23
2021/07/30 01:12:30;;;;;;;21.85;11.60;;;;;;;26.24;46.53;99636.69;5090082;28;20028;-23
2021/07/30 01:14:57;;;;;;;21.50;11.88;;;;;;;25.86;47.98;99636.78;5090219;28;20552;-23
2021/07/30 01:17:24;;;;;;;21.27;12.30;;;;;;;25.32;49.95;99633.91;5090225;28;20054;-23
2021/07/30 01:19:49;;;;;;;36.73;15.37;;;;;;;24.65;51.57;99633.41;5089956;28;20028;-23
2021/07/30 01:22:30;;;;;;;22.63;12.15;;;;;;;24.79;51.19;99636.75;5090122;28;20273;-23
2021/07/30 01:24:56;;;;;;;20.90;10.48;;;;;;;24.65;50.97;99627.97;5072793;28;20114;-23
2021/07/30 01:27:21;;;;;;;17.38;11.23;;;;;;;24.45;51.80;99626.69;5089936;28;20047;-23
2021/07/30 01:29:47;;;;;;;20.10;11.13;;;;;;;24.22;52.61;99615.94;5089584;28;20083;-23
2021/07/30 01:32:13;;;;;;;18.73;11.57;;;;;;;23.99;53.77;99609.88;5089737;28;20369;-23
2021/07/30 01:34:39;;;;;;;19.63;11.45;;;;;;;24.10;53.63;99628.63;5089953;28;20106;-23
2021/07/30 01:37:04;;;;;;;22.40;12.30;;;;;;;24.49;52.15;99626.84;5089830;28;20036;-23
2021/07/30 01:39:30;;;;;;;26.77;11.77;;;;;;;24.60;52.03;99630.84;5089806;28;20170;-23
2021/07/30 01:41:55;;;;;;;21.02;11.70;;;;;;;24.95;50.63;99637.03;5091304;28;20032;-23
2021/07/30 01:44:21;;;;;;;24.27;11.73;;;;;;;25.13;50.51;99637.78;5089752;28;20032;-23
2021/07/30 01:46:47;;;;;;;20.83;11.82;;;;;;;25.42;49.12;99644.44;5089732;28;20036;-23
2021/07/30 01:49:13;;;;;;;25.50;11.98;;;;;;;24.92;50.48;99639.63;5089319;28;20040;-23
2021/07/30 01:51:38;;;;;;;22.70;13.32;;;;;;;25.34;49.37;99642.56;5089438;28;20074;-23
2021/07/30 01:54:06;;;;;;;20.70;13.02;;;;;;;25.48;48.93;99639.56;5089391;28;20032;-23
2021/07/30 01:56:32;;;;;;;28.38;12.65;;;;;;;24.79;50.94;99633.25;5089533;28;20067;-23
2021/07/30 01:58:57;;;;;;;31.73;17.35;;;;;;;24.98;50.10;99641.84;5089330;28;20115;-23
2021/07/30 02:01:23;;;;;;;40.05;21.30;;;;;;;25.56;48.01;99645.00;5089248;28;20027;-23
2021/07/30 02:03:48;;;;;;;54.97;27.48;;;;;;;25.55;48.19;99631.69;5089720;28;20036;-23
2021/07/30 02:06:14;;;;;;;62.40;31.83;;;;;;;25.65;47.63;99632.09;5088080;28;20027;-23
2021/07/30 02:08:39;;;;;;;61.47;33.70;;;;;;;25.79;47.20;99641.97;5089443;28;20097;-23
2021/07/30 02:11:08;;;;;;;53.47;30.60;;;;;;;25.29;48.31;99642.72;5088760;28;20020;-23
2021/07/30 02:16:18;;;;;;;44.00;24.00;;;;;;;25.49;48.28;99633.78;5089164;28;20043;-23
2021/07/30 02:18:43;;;;;;;45.75;24.67;;;;;;;25.54;47.83;99635.53;5071213;28;20032;-23
2021/07/30 02:21:09;;;;;;;36.70;19.52;;;;;;;25.22;48.60;99646.75;5088644;28;20541;-23
2021/07/30 02:23:34;;;;;;;34.30;18.45;;;;;;;24.71;49.70;99640.31;5089154;28;20034;-23
2021/07/30 02:26:00;;;;;;;29.52;15.85;;;;;;;24.92;49.49;99645.06;5088641;28;20102;-23
2021/07/30 02:28:25;;;;;;;29.63;14.65;;;;;;;25.19;48.65;99644.66;5088529;28;20060;-23
2021/07/30 02:30:51;;;;;;;24.80;13.88;;;;;;;25.61;47.35;99633.88;5088711;28;20108;-23
2021/07/30 02:33:16;;;;;;;25.05;13.98;;;;;;;25.30;48.75;99642.41;5088454;28;20108;-23
2021/07/30 02:35:42;;;;;;;25.65;13.95;;;;;;;24.71;50.25;99643.03;5088864;28;20373;-23
2021/07/30 02:38:07;;;;;;;24.50;14.25;;;;;;;24.38;50.91;99642.72;5088499;28;20032;-23
2021/07/30 02:40:34;;;;;;;33.42;15.85;;;;;;;24.42;50.79;99646.41;5088643;28;20476;-23
2021/07/30 02:43:00;;;;;;;26.65;15.77;;;;;;;23.74;52.42;99637.81;5088175;28;20036;-23
2021/07/30 02:45:25;;;;;;;30.58;18.80;;;;;;;23.82;52.91;99650.69;5088564;28;20035;-23
2021/07/30 02:47:51;;;;;;;38.13;19.35;;;;;;;23.98;52.80;99632.75;5088747;28;20039;-23
2021/07/30 02:50:16;;;;;;;24.50;15.45;;;;;;;24.19;52.42;99645.75;5070248;28;20023;-23
2021/07/30 02:52:42;;;;;;;21.33;14.85;;;;;;;24.16;52.86;99649.13;5088374;28;20043;-23
2021/07/30 02:55:08;;;;;;;22.67;14.18;;;;;;;24.29;52.21;99625.56;5088194;28;20024;-23
2021/07/30 02:57:33;;;;;;;28.58;15.60;;;;;;;24.59;51.18;99651.06;5088217;28;20055;-23
2021/07/30 02:59:58;;;;;;;31.38;14.77;;;;;;;24.10;52.91;99655.84;5088590;28;20028;-23
2021/07/30 03:02:24;;;;;;;22.90;14.23;;;;;;;23.63;54.56;99659.91;5088352;28;20427;-23
2021/07/30 03:04:49;;;;;;;24.73;13.82;;;;;;;23.93;53.66;99649.28;5088050;28;20032;-23
2021/07/30 03:07:15;;;;;;;27.35;14.98;;;;;;;24.18;53.32;99649.63;5088849;28;20081;-23
2021/07/30 03:09:40;;;;;;;23.05;13.88;;;;;;;24.48;51.75;99658.75;5088064;28;20090;-23
2021/07/30 03:12:06;;;;;;;21.42;13.15;;;;;;;23.20;56.58;99657.81;5088327;28;20077;-23
2021/07/30 03:14:32;;;;;;;32.15;16.35;;;;;;;23.41;55.57;99660.78;5088012;28;20020;-23
2021/07/30 03:16:57;;;;;;;56.65;31.08;;;;;;;23.77;54.44;99665.25;5087469;28;20031;-23
2021/07/30 03:19:23;;;;;;;35.90;22.25;;;;;;;23.64;55.20;99666.97;5088080;28;20035;-23
2021/07/30 03:21:48;;;;;;;28.67;17.27;;;;;;;23.03;57.32;99663.19;5087853;28;20396;-23
2021/07/30 03:24:13;;;;;;;27.10;17.58;;;;;;;23.55;55.54;99668.84;5087962;28;20028;-23
2021/07/30 03:26:39;;;;;;;45.28;28.05;;;;;;;23.85;54.78;99671.84;5087984;28;20055;-23
2021/07/30 03:29:05;;;;;;;50.70;28.02;;;;;;;23.48;55.88;99665.78;5087499;28;20775;-23
2021/07/30 03:31:30;;;;;;;31.35;17.45;;;;;;;23.19;56.84;99655.41;5087687;28;20031;-23
2021/07/30 03:33:56;;;;;;;38.30;23.95;;;;;;;23.72;54.88;99654.50;5069599;28;20040;-23
2021/07/30 03:36:21;;;;;;;31.23;19.63;;;;;;;24.17;53.44;99665.16;5087490;28;20942;-23
2021/07/30 03:38:47;;;;;;;27.92;16.52;;;;;;;24.26;53.51;99673.34;5087431;28;20035;-23
2021/07/30 03:41:12;;;;;;;23.50;15.88;;;;;;;23.20;56.55;99644.22;5087263;28;20027;-23
2021/07/30 03:43:38;;;;;;;29.00;17.23;;;;;;;23.65;55.30;99678.66;5087379;28;20074;-23
2021/07/30 03:46:03;;;;;;;29.63;15.93;;;;;;;23.37;56.21;99667.16;5086584;28;20400;-23
2021/07/30 03:48:29;;;;;;;31.05;16.77;;;;;;;23.08;57.37;99671.19;5087555;28;20498;-23
2021/07/30 03:50:54;;;;;;;23.63;15.55;;;;;;;22.87;57.38;99666.25;5087297;28;20027;-23
2021/07/30 03:53:19;;;;;;;34.55;18.63;;;;;;;23.48;55.75;99673.94;5087113;28;20085;-23
2021/07/30 03:55:45;;;;;;;32.38;16.08;;;;;;;22.73;58.15;99660.09;5087407;28;20040;-23
2021/07/30 03:58:10;;;;;;;40.90;15.00;;;;;;;23.08;56.46;99660.31;5067735;28;20032;-23
2021/07/30 04:00:39;;;;;;;50.67;16.13;;;;;;;22.84;57.09;99669.59;5087599;28;20024;-23
2021/07/30 04:03:04;;;;;;;24.17;14.13;;;;;;;22.73;57.55;99665.53;5087057;28;20172;-23
2021/07/30 04:05:30;;;;;;;24.58;13.77;;;;;;;22.52;58.32;99669.88;5087311;28;20042;-23
2021/07/30 04:07:56;;;;;;;23.65;13.85;;;;;;;22.39;58.40;99674.22;5087366;28;20039;-23
2021/07/30 04:10:21;;;;;;;29.33;15.13;;;;;;;22.93;57.41;99674.28;5087206;28;20032;-23
2021/07/30 04:12:47;;;;;;;31.15;14.23;;;;;;;22.65;57.90;99674.41;5069312;28;20039;-23
2021/07/30 04:15:12;;;;;;;34.88;14.95;;;;;;;22.77;58.03;99676.59;5086813;28;20028;-23
2021/07/30 04:17:38;;;;;;;33.83;15.63;;;;;;;22.90;57.16;99670.25;5087123;28;20028;-23
2021/07/30 04:20:03;;;;;;;37.22;18.70;;;;;;;23.47;56.28;99673.13;5086998;28;20028;-23
2021/07/30 04:22:29;;;;;;;35.22;16.77;;;;;;;23.19;56.77;99661.66;5087085;28;20039;-23
2021/07/30 04:24:54;;;;;;;39.92;17.52;;;;;;;23.26;57.04;99666.66;5087023;28;20036;-23
2021/07/30 04:27:20;;;;;;;39.80;17.50;;;;;;;23.19;57.62;99656.22;5086894;28;20123;-23
2021/07/30 04:29:45;;;;;;;31.58;14.88;;;;;;;23.45;53.80;99669.13;5088284;28;20056;-23
2021/07/30 04:32:11;;;;;;;41.00;17.73;;;;;;;24.55;49.86;99671.91;5090970;28;20040;-23
2021/07/30 04:34:37;;;;;;;39.40;17.77;;;;;;;25.21;48.34;99672.47;5091061;28;20047;-23
2021/07/30 04:37:03;;;;;;;34.15;17.50;;;;;;;25.09;48.62;99668.75;5090990;28;20499;-23
2021/07/30 04:39:28;;;;;;;33.42;16.50;;;;;;;25.34;48.32;99669.84;5090849;28;20107;-24
2021/07/30 04:41:54;;;;;;;28.17;15.70;;;;;;;25.69;49.00;99661.47;5091020;28;20032;-23
2021/07/30 04:44:20;;;;;;;29.23;15.13;;;;;;;25.81;47.51;99664.31;5090473;28;20090;-23
2021/07/30 04:46:46;;;;;;;27.83;14.95;;;;;;;25.94;47.64;99665.22;5090465;28;20039;-23
2021/07/30 04:49:12;;;;;;;23.77;13.43;;;;;;;25.62;49.90;99671.00;5086630;28;20024;-23
2021/07/30 04:51:37;;;;;;;27.33;14.43;;;;;;;25.72;49.02;99674.47;5089227;28;20031;-23
2021/07/30 04:54:02;;;;;;;27.30;13.55;;;;;;;25.68;47.83;99652.47;5090198;28;20031;-23
2021/07/30 04:56:28;;;;;;;24.10;14.25;;;;;;;25.82;47.86;99661.22;5090552;28;20453;-23
2021/07/30 04:58:54;;;;;;;25.88;15.27;;;;;;;26.16;48.86;99669.56;5090549;28;20039;-23
2021/07/30 05:01:19;;;;;;;24.55;14.07;;;;;;;26.04;48.38;99665.59;5090212;28;20035;-23
2021/07/30 05:03:44;;;;;;;26.50;15.23;;;;;;;25.92;50.64;99668.25;5090146;28;20020;-23
2021/07/30 05:06:13;;;;;;;29.85;15.32;;;;;;;26.02;48.75;99667.88;5090752;28;20423;-23
2021/07/30 05:08:39;;;;;;;33.03;18.75;;;;;;;25.76;50.65;99668.00;5089813;28;20047;-23
2021/07/30 05:11:05;;;;;;;33.00;18.73;;;;;;;25.45;51.80;99671.84;5089970;28;20492;-23
2021/07/30 05:13:30;;;;;;;27.27;16.02;;;;;;;25.50;51.75;99673.63;5089719;28;20027;-23
2021/07/30 05:15:56;;;;;;;23.60;15.57;;;;;;;25.80;50.32;99659.97;5089657;28;20046;-23
2021/07/30 05:18:21;;;;;;;20.88;14.52;;;;;;;26.23;48.45;99684.28;5089482;28;20498;-24
2021/07/30 05:20:47;;;;;;;21.73;13.68;;;;;;;26.68;47.81;99682.00;5089538;28;20024;-23
2021/07/30 05:23:12;;;;;;;19.45;13.40;;;;;;;26.62;48.00;99686.88;5089504;28;20488;-23
2021/07/30 05:25:38;;;;;;;22.40;12.55;;;;;;;26.77;48.14;99688.22;5089607;28;20086;-23
2021/07/30 05:28:03;;;;;;;29.90;13.88;;;;;;;26.97;47.62;99673.69;5089223;28;20040;-23
2021/07/30 05:30:29;;;;;;;20.77;12.45;;;;;;;27.40;47.04;99685.28;5089394;28;20032;-23
2021/07/30 05:32:54;;;;;;;17.45;12.50;;;;;;;27.38;45.35;99684.81;5086663;28;20028;-23
2021/07/30 05:35:20;;;;;;;20.83;11.25;;;;;;;27.45;45.30;99685.06;5089101;28;20035;-24
2021/07/30 05:37:46;;;;;;;18.52;11.30;;;;;;;27.71;45.35;99689.41;5089017;28;20135;-23
2021/07/30 05:40:12;;;;;;;16.23;10.07;;;;;;;27.78;43.50;99695.09;5088486;28;20020;-23
2021/07/30 05:42:37;;;;;;;12.90;8.50;;;;;;;27.82;42.62;99683.09;5085818;28;20020;-23
2021/07/30 05:45:03;;;;;;;21.77;9.82;;;;;;;27.89;42.83;99688.06;5088884;28;20016;-23
2021/07/30 05:47:28;;;;;;;14.88;8.60;;;;;;;27.97;43.09;99692.59;5088736;28;20039;-23
2021/07/30 05:49:54;;;;;;;18.17;9.32;;;;;;;27.82;42.38;99679.56;5088851;28;20042;-23
2021/07/30 05:52:19;;;;;;;16.92;9.60;;;;;;;27.97;43.55;99687.13;5088990;28;20039;-23
2021/07/30 05:54:45;;;;;;;18.05;9.55;;;;;;;27.96;42.63;99685.53;5088963;28;20044;-23
2021/07/30 05:57:10;;;;;;;14.95;9.93;;;;;;;28.07;44.88;99696.00;5089101;28;20028;-23
2021/07/30 05:59:36;;;;;;;20.23;10.40;;;;;;;28.28;43.15;99696.66;5089101;28;20054;-23
2021/07/30 06:02:01;;;;;;;15.00;9.18;;;;;;;28.69;43.07;99694.72;5086296;28;20040;-23
2021/07/30 06:04:27;;;;;;;13.60;9.07;;;;;;;28.82;42.62;99696.22;5088525;28;20031;-23
2021/07/30 06:06:52;;;;;;;17.85;9.38;;;;;;;28.67;41.94;99697.00;5087933;28;20051;-23
2021/07/30 06:09:19;;;;;;;16.60;9.77;;;;;;;28.90;41.55;99696.44;5085057;28;20028;-23
2021/07/30 06:11:45;;;;;;;14.60;9.37;;;;;;;28.95;41.11;99687.94;5087527;28;20024;-23
2021/07/30 06:14:10;;;;;;;18.77;9.95;;;;;;;29.21;39.51;99693.75;5087535;28;20423;-23
2021/07/30 06:16:35;;;;;;;18.67;9.20;;;;;;;29.33;39.44;99687.38;5087622;28;20480;-23
2021/07/30 06:19:01;;;;;;;19.10;9.82;;;;;;;29.48;37.85;99683.03;5088730;28;20066;-23
2021/07/30 06:21:26;;;;;;;15.48;9.77;;;;;;;29.67;38.52;99670.50;5088976;28;20423;-23
2021/07/30 06:23:52;;;;;;;22.27;10.40;;;;;;;29.62;38.62;99679.81;5088639;28;20044;-23
2021/07/30 06:26:17;;;;;;;23.25;10.45;;;;;;;29.59;38.62;99688.78;5088878;28;20032;-23
2021/07/30 06:28:43;;;;;;;19.52;9.40;;;;;;;29.28;37.15;99687.66;5088644;28;20405;-23
2021/07/30 06:31:08;;;;;;;20.80;10.60;;;;;;;29.45;37.63;99691.97;5088380;28;20032;-23
2021/07/30 06:33:34;;;;;;;20.73;9.77;;;;;;;29.50;37.03;99693.66;5088911;28;20047;-23
2021/07/30 06:35:59;;;;;;;18.35;10.32;;;;;;;29.69;37.88;99695.66;5089151;28;20047;-23
2021/07/30 06:38:25;;;;;;;15.30;9.68;;;;;;;29.73;37.37;99694.66;5088636;28;20039;-23
2021/07/30 06:40:50;;;;;;;19.13;9.88;;;;;;;29.81;37.41;99688.16;5088962;28;20043;-23
2021/07/30 06:43:16;;;;;;;19.70;10.30;;;;;;;29.76;37.81;99691.19;5088736;28;20633;-23
2021/07/30 06:45:44;;;;;;;22.67;11.00;;;;;;;29.74;38.39;99690.72;5088307;28;20031;-23
2021/07/30 06:48:09;;;;;;;18.98;9.30;;;;;;;29.91;37.10;99692.28;5088394;28;20490;-23
2021/07/30 06:50:35;;;;;;;25.27;12.63;;;;;;;30.09;37.59;99689.94;5088291;28;20016;-23
2021/07/30 06:53:00;;;;;;;20.50;9.60;;;;;;;29.76;37.21;99685.69;5087915;28;20085;-23
2021/07/30 06:55:26;;;;;;;20.15;10.27;;;;;;;29.75;38.49;99681.34;5088560;28;20056;-23
2021/07/30 06:57:51;;;;;;;18.25;9.88;;;;;;;29.79;37.99;99673.97;5088166;28;20594;-23
2021/07/30 07:00:17;;;;;;;18.70;9.77;;;;;;;30.28;36.95;99689.19;5088082;28;20453;-23
2021/07/30 07:02:42;;;;;;;20.13;10.93;;;;;;;30.51;36.46;99691.25;5088331;28;20023;-22
2021/07/30 07:05:08;;;;;;;22.42;10.65;;;;;;;30.42;37.01;99691.44;5087761;28;20032;-23
2021/07/30 07:07:34;;;;;;;19.80;9.90;;;;;;;30.30;35.98;99691.59;5088298;28;20059;-23
2021/07/30 07:09:59;;;;;;;17.45;10.55;;;;;;;30.33;36.14;99688.91;5087888;28;20027;-23
2021/07/30 07:12:25;;;;;;;20.95;11.18;;;;;;;30.56;35.96;99677.19;5088524;28;20089;-23
2021/07/30 07:14:50;;;;;;;19.17;12.40;;;;;;;30.72;35.52;99680.63;5088225;28;20400;-22
2021/07/30 07:17:18;;;;;;;19.45;11.48;;;;;;;30.57;35.45;99690.59;5087852;28;20408;-23
2021/07/30 07:19:44;;;;;;;22.48;10.82;;;;;;;30.68;34.73;99684.47;5088414;28;20037;-23
2021/07/30 07:22:09;;;;;;;18.20;10.98;;;;;;;30.47;36.04;99679.38;5087907;28;20097;-23
2021/07/30 07:24:34;;;;;;;20.10;10.65;;;;;;;30.73;35.87;99693.25;5088088;28;20040;-23
2021/07/30 07:27:00;;;;;;;22.58;10.75;;;;;;;30.78;36.79;99686.66;5069081;28;20028;-23
2021/07/30 07:29:27;;;;;;;23.45;10.93;;;;;;;30.94;35.68;99692.88;5087730;28;20494;-23
2021/07/30 07:31:52;;;;;;;22.52;11.50;;;;;;;31.27;34.54;99693.44;5087470;28;20514;-23
2021/07/30 07:34:19;;;;;;;21.75;10.63;;;;;;;31.02;35.05;99669.03;5087619;28;20067;-23
2021/07/30 07:36:45;;;;;;;25.42;11.43;;;;;;;31.63;34.12;99694.84;5087629;28;20397;-23
2021/07/30 07:39:10;;;;;;;25.65;11.10;;;;;;;31.90;34.78;99698.41;5087322;28;20042;-23
2021/07/30 07:41:36;;;;;;;22.88;11.38;;;;;;;31.53;33.80;99685.25;5087640;28;20064;-23
2021/07/30 07:44:01;;;;;;;20.05;11.25;;;;;;;31.67;33.65;99692.13;5087340;28;20030;-23
2021/07/30 07:46:27;;;;;;;28.52;12.15;;;;;;;31.72;33.82;99697.34;5087396;28;20031;-23
2021/07/30 07:48:52;;;;;;;23.38;11.32;;;;;;;31.85;33.16;99693.19;5087345;28;20086;-23
2021/07/30 07:51:18;;;;;;;19.88;11.63;;;;;;;32.02;34.34;99695.44;5087158;28;20404;-23
2021/07/30 07:53:43;;;;;;;51.53;12.68;;;;;;;32.41;33.71;99692.38;5087366;28;20098;-23
2021/07/30 07:56:10;;;;;;;82.93;14.93;;;;;;;32.45;32.97;99684.16;5087742;28;20032;-23
2021/07/30 07:58:36;;;;;;;21.25;12.80;;;;;;;32.40;34.49;99681.72;5087470;28;20039;-23
2021/07/30 08:01:01;;;;;;;33.25;11.80;;;;;;;32.60;32.56;99690.66;5087256;28;20024;-23
2021/07/30 08:03:27;;;;;;;23.17;11.40;;;;;;;32.77;33.40;99687.28;5087057;28;20039;-23
2021/07/30 08:05:52;;;;;;;27.08;11.93;;;;;;;32.94;32.95;99682.34;5086858;28;20035;-23
2021/07/30 08:08:18;;;;;;;21.27;10.70;;;;;;;33.14;31.38;99686.53;5087547;28;20809;-23
2021/07/30 08:10:43;;;;;;;23.17;11.02;;;;;;;32.97;30.74;99673.28;5087125;28;20024;-23
2021/07/30 08:13:09;;;;;;;20.60;11.25;;;;;;;33.00;31.02;99684.38;5086896;28;20031;-23
2021/07/30 08:15:34;;;;;;;20.83;10.50;;;;;;;33.53;31.33;99683.28;5086873;28;20052;-23
2021/07/30 08:18:00;;;;;;;21.05;10.82;;;;;;;33.27;31.48;99667.66;5087615;28;20043;-23
2021/07/30 08:20:25;;;;;;;23.38;11.25;;;;;;;33.56;31.30;99662.34;5087018;28;20028;-23
2021/07/30 08:22:51;;;;;;;27.85;12.35;;;;;;;33.31;30.12;99673.22;5087148;28;20106;-23
2021/07/30 08:25:16;;;;;;;24.05;10.45;;;;;;;33.31;31.08;99674.03;5086736;28;20036;-23
2021/07/30 08:27:42;;;;;;;23.40;10.45;;;;;;;33.53;29.24;99666.69;5086691;28;20036;-23
2021/07/30 08:30:08;;;;;;;19.10;9.88;;;;;;;33.81;29.74;99657.00;5086992;28;20491;-23
2021/07/30 08:32:34;;;;;;;17.13;10.38;;;;;;;33.56;29.38;99645.75;5069232;28;20036;-23
2021/07/30 08:35:00;;;;;;;19.48;11.00;;;;;;;33.71;31.12;99647.47;5087000;28;20036;-23
2021/07/30 08:37:25;;;;;;;20.98;10.52;;;;;;;33.66;30.50;99644.28;5087273;28;20031;-23
2021/07/30 08:39:51;;;;;;;21.23;10.35;;;;;;;33.98;29.40;99644.44;5087208;28;20040;-23
2021/07/30 08:42:17;;;;;;;20.67;9.80;;;;;;;33.86;29.72;99636.47;5087052;28;20036;-23
2021/07/30 08:44:42;;;;;;;19.08;10.02;;;;;;;34.14;29.25;99633.06;5086831;28;20032;-23
2021/07/30 08:47:09;;;;;;;24.17;10.70;;;;;;;34.42;30.67;99622.09;5086551;28;20044;-23
2021/07/30 08:49:35;;;;;;;22.83;10.63;;;;;;;34.66;28.33;99628.13;5068985;28;20488;-23
2021/07/30 08:52:10;;;;;;;19.13;10.30;;;;;;;34.94;27.34;99632.09;5086687;28;20089;-23
2021/07/30 08:54:35;;;;;;;21.63;9.65;;;;;;;34.66;27.65;99625.34;5086659;28;20075;-23
2021/07/30 08:57:01;;;;;;;19.42;10.00;;;;;;;34.88;28.43;99614.28;5068293;28;20028;-23
2021/07/30 08:59:26;;;;;;;20.65;10.10;;;;;;;35.31;27.08;99628.16;5087071;28;20039;-23
2021/07/30 09:01:53;;;;;;;17.85;10.88;;;;;;;35.51;28.38;99631.28;5086762;28;20103;-23
2021/07/30 09:04:25;;;;;;;21.63;11.20;;;;;;;35.36;28.43;99619.44;5086604;28;20110;-23
2021/07/30 09:06:52;;;;;;;20.77;11.70;;;;;;;35.33;27.10;99617.47;5087632;28;20040;-23
2021/07/30 09:09:17;;;;;;;;;;;;;;;35.92;27.78;99617.75;5087793;28;20109;-23
2021/07/30 09:11:43;;;;;;;20.37;11.20;;;;;;;35.24;26.92;99606.00;5086642;28;20715;-23
2021/07/30 09:14:09;;;;;;;19.02;10.25;;;;;;;35.08;27.44;99598.84;5087025;28;20035;-23
2021/07/30 09:16:53;;;;;;;18.95;11.68;;;;;;;35.19;27.27;99594.13;5089553;28;20848;-23
2021/07/30 09:19:19;;;;;;;17.45;10.98;;;;;;;35.49;26.33;99600.41;5090122;28;20060;-23
2021/07/30 09:21:44;;;;;;;20.25;10.77;;;;;;;35.73;27.49;99584.91;5090223;28;20059;-23
2021/07/30 09:24:19;;;;;;;19.20;10.27;;;;;;;36.32;25.82;99596.16;5090127;28;20476;-23
2021/07/30 09:26:50;;;;;;;22.17;11.30;;;;;;;36.22;26.21;99608.13;5090224;28;20029;-22
2021/07/30 09:29:16;;;;;;;23.48;10.63;;;;;;;36.29;25.34;99591.44;5089546;28;20052;-22
2021/07/30 09:31:49;;;;;;;23.42;11.32;;;;;;;36.29;27.11;99585.88;5089931;28;20514;-23
2021/07/30 09:34:19;;;;;;;24.48;11.27;;;;;;;36.29;27.39;99585.06;5090032;28;20483;-23
2021/07/30 09:36:55;;;;;;;21.13;10.93;;;;;;;36.80;26.96;99570.47;5089562;28;20059;-23
2021/07/30 09:39:25;;;;;;;21.67;11.45;;;;;;;36.46;25.22;99575.84;5089812;28;20454;-23
2021/07/30 09:41:55;;;;;;;25.40;11.70;;;;;;;36.36;26.85;99574.72;5089928;28;20039;-23
2021/07/30 09:44:21;;;;;;;20.55;10.30;;;;;;;36.85;24.88;99572.00;5089659;28;20058;-23
2021/07/30 09:47:12;;;;;;;18.75;9.68;;;;;;;36.91;26.41;99575.94;5089966;28;20117;-23
2021/07/30 09:49:44;;;;;;;19.17;9.82;;;;;;;36.93;24.63;99544.97;5089665;28;20511;-23
2021/07/30 09:52:11;;;;;;;19.52;9.50;;;;;;;36.69;25.20;99557.88;5089347;28;20444;-23
2021/07/30 09:54:39;;;;;;;18.75;9.30;;;;;;;36.83;24.03;99552.19;5089516;28;20046;-22
2021/07/30 09:57:04;;;;;;;21.58;10.77;;;;;;;37.07;26.29;99550.38;5054977;28;20385;-23
2021/07/30 09:59:32;;;;;;;22.02;11.00;;;;;;;37.28;24.86;99548.63;5071475;28;20141;-23
2021/07/30 10:01:57;;;;;;;21.02;9.98;;;;;;;37.62;23.80;99540.31;5071831;28;20036;-23
2021/07/30 10:04:23;;;;;;;21.70;9.98;;;;;;;37.31;24.21;99542.22;5089633;28;20488;-23
2021/07/30 10:06:48;;;;;;;21.75;10.68;;;;;;;37.85;23.70;99541.63;5054553;28;20024;-23
2021/07/30 10:09:14;;;;;;;17.00;9.63;;;;;;;37.78;22.67;99543.28;5089460;28;20032;-23
2021/07/30 10:11:39;;;;;;;18.13;9.35;;;;;;;37.73;22.21;99534.63;5070578;28;20027;-23
2021/07/30 10:14:05;;;;;;;20.05;10.02;;;;;;;37.69;23.96;99517.97;5088246;28;20484;-23
2021/07/30 10:16:30;;;;;;;20.77;9.05;;;;;;;38.06;21.60;99535.00;5070315;28;20028;-23
2021/07/30 10:18:56;;;;;;;21.20;9.55;;;;;;;38.74;20.22;99528.38;5055042;28;20093;-22
2021/07/30 10:21:21;;;;;;;25.40;9.73;;;;;;;39.02;21.03;99515.97;5071059;28;20532;-22
2021/07/30 10:23:49;;;;;;;18.63;9.77;;;;;;;39.22;21.69;99518.78;5054463;28;20141;-23
2021/07/30 10:26:15;;;;;;;17.33;8.85;;;;;;;38.73;21.78;99510.09;5071073;28;20063;-23
2021/07/30 10:28:41;;;;;;;16.90;8.17;;;;;;;39.15;20.41;99511.34;5067114;28;20079;-23
2021/07/30 10:31:08;;;;;;;19.37;8.20;;;;;;;39.20;19.26;99506.50;5068348;28;20020;-23
2021/07/30 10:33:37;;;;;;;;;;;;;;;39.11;19.93;99507.84;5069294;28;20541;-23
2021/07/30 10:36:10;;;;;;;19.77;9.13;;;;;;;39.11;21.21;99502.28;5068652;28;19918;-23
2021/07/30 10:38:35;;;;;;;19.45;9.00;;;;;;;39.24;20.26;99491.25;5068604;28;20036;-23
2021/07/30 10:41:01;;;;;;;21.00;8.60;;;;;;;39.33;21.30;99488.66;5068061;28;20025;-23
2021/07/30 10:43:28;;;;;;;24.90;9.13;;;;;;;40.04;19.81;99490.41;5068668;28;20467;-23
2021/07/30 10:46:13;;;;;;;;;;;;;;;40.54;18.96;99486.41;5068947;28;20101;-23
2021/07/30 10:48:39;;;;;;;20.83;9.35;;;;;;;40.61;19.85;99474.28;5068038;28;19919;-22
2021/07/30 10:51:20;;;;;;;20.80;8.57;;;;;;;40.47;20.00;99475.44;5068221;28;20036;-22
2021/07/30 10:54:00;;;;;;;20.77;9.27;;;;;;;40.32;19.81;99470.22;5068126;28;20151;-22
2021/07/30 10:56:31;;;;;;;19.25;9.13;;;;;;;39.36;21.10;99462.72;5068209;28;20025;-23
2021/07/30 10:59:00;;;;;;;20.85;9.63;;;;;;;39.14;21.94;99462.38;5067971;28;20032;-23
2021/07/30 11:01:29;;;;;;;21.30;9.80;;;;;;;39.37;21.76;99443.97;5068209;28;20025;-23
2021/07/30 11:03:56;;;;;;;19.35;9.90;;;;;;;39.63;21.35;99444.25;5068143;28;20065;-22
2021/07/30 11:06:30;;;;;;;19.83;9.88;;;;;;;39.62;21.11;99445.47;5067397;28;20505;-23
2021/07/30 11:11:46;;;;;;;29.48;9.93;;;;;;;40.47;19.31;99441.91;5068026;28;20571;-22
2021/07/30 11:14:16;;;;;;;22.17;9.82;;;;;;;40.30;18.89;99432.75;5068061;28;20804;-23
2021/07/30 11:16:51;;;;;;;18.20;8.93;;;;;;;39.97;19.16;99433.53;5067732;28;20020;-23
2021/07/30 11:19:17;;;;;;;25.13;10.48;;;;;;;40.57;18.45;99424.84;5067505;28;20077;-22
2021/07/30 11:21:43;;;;;;;20.15;9.35;;;;;;;40.43;18.41;99425.22;5067741;28;20515;-22